< < Back
Terminal Aerodrome Forecast


Current Version              Previous Versions:   1  2  3  4  5  6  7  8  9  

Terminal Aerodrome Forecast

265
FTUS42 KFFC 301951 AAA
TAFMCN
TAF AMD
KMCN 301951Z 3020/3118 34005KT P6SM VCSH BKN040
      TEMPO 3020/3023 VRB10G20KT 6SM -TSRA BKN040CB
     FM310100 VRB04KT P6SM SCT060 SCT250
     FM311400 05004KT P6SM FEW050=



Latest METAR

126
SAUS80 KWBC 302000 RRA
MTRMCN
METAR KMCN 301953Z 16007KT 10SM FEW029 32/26 A2990 RMK AO2 RAB16E39
SLP120 P0001 T03170256


USA.gov is the U.S. government's official web portal to all federal, state and local government web resources and services.